sensor_id;sensor_type;location;lat;lon;timestamp;P1;durP1;ratioP1;P2;durP2;ratioP2
78860;SDS011;68211;45.774;15.892;2023-09-19T00:01:25;22.23;;;5.38;;
78860;SDS011;68211;45.774;15.892;2023-09-19T00:03:53;18.23;;;5.43;;
78860;SDS011;68211;45.774;15.892;2023-09-19T00:06:20;14.15;;;5.05;;
78860;SDS011;68211;45.774;15.892;2023-09-19T00:08:46;14.63;;;4.70;;
78860;SDS011;68211;45.774;15.892;2023-09-19T00:11:13;19.70;;;5.60;;
78860;SDS011;68211;45.774;15.892;2023-09-19T00:13:39;17.05;;;5.30;;
78860;SDS011;68211;45.774;15.892;2023-09-19T00:16:07;14.68;;;5.10;;
78860;SDS011;68211;45.774;15.892;2023-09-19T00:18:36;13.13;;;4.70;;
78860;SDS011;68211;45.774;15.892;2023-09-19T00:21:02;15.57;;;5.05;;
78860;SDS011;68211;45.774;15.892;2023-09-19T00:23:29;20.48;;;5.05;;
78860;SDS011;68211;45.774;15.892;2023-09-19T00:25:58;14.70;;;4.80;;
78860;SDS011;68211;45.774;15.892;2023-09-19T00:28:24;14.75;;;4.53;;
78860;SDS011;68211;45.774;15.892;2023-09-19T00:30:51;22.08;;;5.18;;
78860;SDS011;68211;45.774;15.892;2023-09-19T00:33:18;15.88;;;5.07;;
78860;SDS011;68211;45.774;15.892;2023-09-19T00:35:49;12.00;;;4.57;;
78860;SDS011;68211;45.774;15.892;2023-09-19T00:38:15;18.23;;;4.95;;
78860;SDS011;68211;45.774;15.892;2023-09-19T00:40:43;18.58;;;5.43;;
78860;SDS011;68211;45.774;15.892;2023-09-19T00:43:09;16.08;;;4.68;;
78860;SDS011;68211;45.774;15.892;2023-09-19T00:45:36;13.18;;;4.70;;
78860;SDS011;68211;45.774;15.892;2023-09-19T00:48:03;14.35;;;5.05;;
78860;SDS011;68211;45.774;15.892;2023-09-19T00:50:30;16.73;;;5.50;;
78860;SDS011;68211;45.774;15.892;2023-09-19T00:52:58;14.20;;;4.55;;
78860;SDS011;68211;45.774;15.892;2023-09-19T00:55:24;14.93;;;4.95;;
78860;SDS011;68211;45.774;15.892;2023-09-19T00:57:51;11.32;;;4.75;;
78860;SDS011;68211;45.774;15.892;2023-09-19T01:00:18;15.95;;;4.78;;
78860;SDS011;68211;45.774;15.892;2023-09-19T01:02:45;15.73;;;5.28;;
78860;SDS011;68211;45.774;15.892;2023-09-19T01:05:12;10.40;;;4.93;;
78860;SDS011;68211;45.774;15.892;2023-09-19T01:07:39;14.88;;;4.88;;
78860;SDS011;68211;45.774;15.892;2023-09-19T01:10:07;12.25;;;5.30;;
78860;SDS011;68211;45.774;15.892;2023-09-19T01:12:36;12.82;;;5.20;;
78860;SDS011;68211;45.774;15.892;2023-09-19T01:15:08;16.67;;;4.88;;
78860;SDS011;68211;45.774;15.892;2023-09-19T01:17:39;13.18;;;5.20;;
78860;SDS011;68211;45.774;15.892;2023-09-19T01:20:11;13.90;;;5.20;;
78860;SDS011;68211;45.774;15.892;2023-09-19T01:22:43;11.88;;;4.93;;
78860;SDS011;68211;45.774;15.892;2023-09-19T01:25:30;16.20;;;5.00;;
78860;SDS011;68211;45.774;15.892;2023-09-19T01:28:06;13.25;;;5.18;;
78860;SDS011;68211;45.774;15.892;2023-09-19T01:30:39;22.70;;;5.15;;
78860;SDS011;68211;45.774;15.892;2023-09-19T01:35:32;13.30;;;5.18;;
78860;SDS011;68211;45.774;15.892;2023-09-19T01:37:58;15.13;;;5.45;;
78860;SDS011;68211;45.774;15.892;2023-09-19T01:40:25;11.68;;;5.68;;
78860;SDS011;68211;45.774;15.892;2023-09-19T01:42:53;15.95;;;5.30;;
78860;SDS011;68211;45.774;15.892;2023-09-19T01:47:49;13.52;;;5.70;;
78860;SDS011;68211;45.774;15.892;2023-09-19T01:50:17;14.48;;;5.47;;
78860;SDS011;68211;45.774;15.892;2023-09-19T01:52:47;14.68;;;5.75;;
78860;SDS011;68211;45.774;15.892;2023-09-19T01:55:15;12.45;;;5.50;;
78860;SDS011;68211;45.774;15.892;2023-09-19T01:57:46;17.98;;;6.13;;
78860;SDS011;68211;45.774;15.892;2023-09-19T02:00:14;15.90;;;5.65;;
78860;SDS011;68211;45.774;15.892;2023-09-19T02:02:42;13.38;;;5.43;;
78860;SDS011;68211;45.774;15.892;2023-09-19T02:05:11;12.82;;;5.50;;
78860;SDS011;68211;45.774;15.892;2023-09-19T02:07:38;18.48;;;6.20;;
78860;SDS011;68211;45.774;15.892;2023-09-19T02:10:05;12.50;;;5.13;;
78860;SDS011;68211;45.774;15.892;2023-09-19T02:12:31;13.30;;;5.57;;
78860;SDS011;68211;45.774;15.892;2023-09-19T02:14:58;17.15;;;5.90;;
78860;SDS011;68211;45.774;15.892;2023-09-19T02:17:24;12.90;;;5.45;;
78860;SDS011;68211;45.774;15.892;2023-09-19T02:19:51;10.52;;;5.13;;
78860;SDS011;68211;45.774;15.892;2023-09-19T02:22:19;10.50;;;4.95;;
78860;SDS011;68211;45.774;15.892;2023-09-19T02:24:47;15.35;;;5.68;;
78860;SDS011;68211;45.774;15.892;2023-09-19T02:27:13;10.35;;;5.80;;
78860;SDS011;68211;45.774;15.892;2023-09-19T02:29:40;8.05;;;4.90;;
78860;SDS011;68211;45.774;15.892;2023-09-19T02:32:06;16.05;;;5.80;;
78860;SDS011;68211;45.774;15.892;2023-09-19T02:34:33;14.95;;;5.00;;
78860;SDS011;68211;45.774;15.892;2023-09-19T02:37:00;16.80;;;6.07;;
78860;SDS011;68211;45.774;15.892;2023-09-19T02:39:34;15.38;;;5.78;;
78860;SDS011;68211;45.774;15.892;2023-09-19T02:42:03;15.63;;;5.70;;
78860;SDS011;68211;45.774;15.892;2023-09-19T02:44:30;19.98;;;5.75;;
78860;SDS011;68211;45.774;15.892;2023-09-19T02:46:56;11.98;;;4.97;;
78860;SDS011;68211;45.774;15.892;2023-09-19T02:49:23;18.88;;;5.57;;
78860;SDS011;68211;45.774;15.892;2023-09-19T02:51:49;20.85;;;6.30;;
78860;SDS011;68211;45.774;15.892;2023-09-19T02:54:16;17.70;;;5.40;;
78860;SDS011;68211;45.774;15.892;2023-09-19T02:56:43;14.25;;;5.65;;
78860;SDS011;68211;45.774;15.892;2023-09-19T02:59:10;14.65;;;5.80;;
78860;SDS011;68211;45.774;15.892;2023-09-19T03:01:37;11.32;;;5.30;;
78860;SDS011;68211;45.774;15.892;2023-09-19T03:04:04;21.10;;;5.85;;
78860;SDS011;68211;45.774;15.892;2023-09-19T03:06:31;20.85;;;5.82;;
78860;SDS011;68211;45.774;15.892;2023-09-19T03:08:57;14.32;;;5.50;;
78860;SDS011;68211;45.774;15.892;2023-09-19T03:11:24;18.27;;;5.38;;
78860;SDS011;68211;45.774;15.892;2023-09-19T03:13:53;11.65;;;5.70;;
78860;SDS011;68211;45.774;15.892;2023-09-19T03:16:19;10.77;;;5.38;;
78860;SDS011;68211;45.774;15.892;2023-09-19T03:18:46;14.35;;;5.43;;
78860;SDS011;68211;45.774;15.892;2023-09-19T03:21:12;17.77;;;5.82;;
78860;SDS011;68211;45.774;15.892;2023-09-19T03:23:40;15.10;;;5.90;;
78860;SDS011;68211;45.774;15.892;2023-09-19T03:26:06;20.52;;;5.63;;
78860;SDS011;68211;45.774;15.892;2023-09-19T03:28:33;13.07;;;5.40;;
78860;SDS011;68211;45.774;15.892;2023-09-19T03:31:01;14.38;;;5.97;;
78860;SDS011;68211;45.774;15.892;2023-09-19T03:33:28;19.30;;;5.90;;
78860;SDS011;68211;45.774;15.892;2023-09-19T03:35:54;18.23;;;5.90;;
78860;SDS011;68211;45.774;15.892;2023-09-19T03:38:21;16.90;;;6.20;;
78860;SDS011;68211;45.774;15.892;2023-09-19T03:40:47;13.25;;;5.38;;
78860;SDS011;68211;45.774;15.892;2023-09-19T03:43:14;21.20;;;6.93;;
78860;SDS011;68211;45.774;15.892;2023-09-19T03:45:40;13.85;;;5.57;;
78860;SDS011;68211;45.774;15.892;2023-09-19T03:48:09;16.25;;;5.90;;
78860;SDS011;68211;45.774;15.892;2023-09-19T03:50:35;10.98;;;5.32;;
78860;SDS011;68211;45.774;15.892;2023-09-19T03:53:02;15.23;;;5.45;;
78860;SDS011;68211;45.774;15.892;2023-09-19T03:55:29;12.82;;;5.63;;
78860;SDS011;68211;45.774;15.892;2023-09-19T03:57:55;12.90;;;5.45;;
78860;SDS011;68211;45.774;15.892;2023-09-19T04:00:22;17.40;;;5.90;;
78860;SDS011;68211;45.774;15.892;2023-09-19T04:02:48;16.27;;;5.72;;
78860;SDS011;68211;45.774;15.892;2023-09-19T04:05:17;17.33;;;5.70;;
78860;SDS011;68211;45.774;15.892;2023-09-19T04:07:43;20.23;;;5.63;;
78860;SDS011;68211;45.774;15.892;2023-09-19T04:10:10;12.15;;;5.70;;
78860;SDS011;68211;45.774;15.892;2023-09-19T04:12:37;19.58;;;5.70;;
78860;SDS011;68211;45.774;15.892;2023-09-19T04:15:04;15.00;;;5.18;;
78860;SDS011;68211;45.774;15.892;2023-09-19T04:17:30;8.60;;;5.18;;
78860;SDS011;68211;45.774;15.892;2023-09-19T04:19:57;16.63;;;5.60;;
78860;SDS011;68211;45.774;15.892;2023-09-19T04:22:25;23.85;;;5.50;;
78860;SDS011;68211;45.774;15.892;2023-09-19T04:24:52;15.60;;;5.67;;
78860;SDS011;68211;45.774;15.892;2023-09-19T04:27:18;19.75;;;5.72;;
78860;SDS011;68211;45.774;15.892;2023-09-19T04:29:45;21.20;;;5.30;;
78860;SDS011;68211;45.774;15.892;2023-09-19T04:32:11;9.93;;;4.82;;
78860;SDS011;68211;45.774;15.892;2023-09-19T04:34:38;18.45;;;5.95;;
78860;SDS011;68211;45.774;15.892;2023-09-19T04:37:05;16.02;;;5.43;;
78860;SDS011;68211;45.774;15.892;2023-09-19T04:39:32;8.63;;;4.97;;
78860;SDS011;68211;45.774;15.892;2023-09-19T04:41:59;13.60;;;6.20;;
78860;SDS011;68211;45.774;15.892;2023-09-19T04:44:25;17.63;;;6.00;;
78860;SDS011;68211;45.774;15.892;2023-09-19T04:46:52;20.02;;;6.40;;
78860;SDS011;68211;45.774;15.892;2023-09-19T04:49:18;20.98;;;6.30;;
78860;SDS011;68211;45.774;15.892;2023-09-19T04:51:45;13.77;;;5.78;;
78860;SDS011;68211;45.774;15.892;2023-09-19T04:54:11;14.88;;;6.30;;
78860;SDS011;68211;45.774;15.892;2023-09-19T04:56:39;19.77;;;6.38;;
78860;SDS011;68211;45.774;15.892;2023-09-19T04:59:06;16.25;;;5.93;;
78860;SDS011;68211;45.774;15.892;2023-09-19T05:01:32;16.98;;;7.25;;
78860;SDS011;68211;45.774;15.892;2023-09-19T05:03:59;21.58;;;6.57;;
78860;SDS011;68211;45.774;15.892;2023-09-19T05:06:25;16.85;;;6.45;;
78860;SDS011;68211;45.774;15.892;2023-09-19T05:08:52;21.92;;;6.50;;
78860;SDS011;68211;45.774;15.892;2023-09-19T05:11:18;20.20;;;6.63;;
78860;SDS011;68211;45.774;15.892;2023-09-19T05:13:46;17.58;;;6.25;;
78860;SDS011;68211;45.774;15.892;2023-09-19T05:16:13;16.08;;;6.75;;
78860;SDS011;68211;45.774;15.892;2023-09-19T05:18:39;16.73;;;6.88;;
78860;SDS011;68211;45.774;15.892;2023-09-19T05:21:06;12.88;;;6.40;;
78860;SDS011;68211;45.774;15.892;2023-09-19T05:23:32;25.77;;;6.93;;
78860;SDS011;68211;45.774;15.892;2023-09-19T05:25:58;22.95;;;6.72;;
78860;SDS011;68211;45.774;15.892;2023-09-19T05:28:25;19.33;;;6.78;;
78860;SDS011;68211;45.774;15.892;2023-09-19T05:30:53;13.40;;;5.80;;
78860;SDS011;68211;45.774;15.892;2023-09-19T05:33:19;17.90;;;6.65;;
78860;SDS011;68211;45.774;15.892;2023-09-19T05:35:47;14.77;;;6.10;;
78860;SDS011;68211;45.774;15.892;2023-09-19T05:38:14;18.80;;;6.32;;
78860;SDS011;68211;45.774;15.892;2023-09-19T05:40:40;18.33;;;6.72;;
78860;SDS011;68211;45.774;15.892;2023-09-19T05:43:07;18.00;;;6.57;;
78860;SDS011;68211;45.774;15.892;2023-09-19T05:45:33;22.35;;;6.35;;
78860;SDS011;68211;45.774;15.892;2023-09-19T05:48:08;22.70;;;6.63;;
78860;SDS011;68211;45.774;15.892;2023-09-19T05:50:34;19.52;;;6.10;;
78860;SDS011;68211;45.774;15.892;2023-09-19T05:53:01;20.08;;;6.28;;
78860;SDS011;68211;45.774;15.892;2023-09-19T05:55:27;23.27;;;6.38;;
78860;SDS011;68211;45.774;15.892;2023-09-19T05:57:54;17.17;;;5.78;;
78860;SDS011;68211;45.774;15.892;2023-09-19T06:00:21;14.00;;;5.07;;
78860;SDS011;68211;45.774;15.892;2023-09-19T06:02:49;12.57;;;4.28;;
78860;SDS011;68211;45.774;15.892;2023-09-19T06:05:17;10.43;;;4.18;;
78860;SDS011;68211;45.774;15.892;2023-09-19T06:07:43;12.38;;;4.10;;
78860;SDS011;68211;45.774;15.892;2023-09-19T06:10:10;12.00;;;3.90;;
78860;SDS011;68211;45.774;15.892;2023-09-19T06:12:37;8.73;;;3.50;;
78860;SDS011;68211;45.774;15.892;2023-09-19T06:15:04;7.57;;;3.20;;
78860;SDS011;68211;45.774;15.892;2023-09-19T06:17:31;8.68;;;3.63;;
78860;SDS011;68211;45.774;15.892;2023-09-19T06:19:57;6.75;;;3.30;;
78860;SDS011;68211;45.774;15.892;2023-09-19T06:22:25;5.47;;;3.00;;
78860;SDS011;68211;45.774;15.892;2023-09-19T06:24:52;10.18;;;3.25;;
78860;SDS011;68211;45.774;15.892;2023-09-19T06:27:18;7.10;;;2.97;;
78860;SDS011;68211;45.774;15.892;2023-09-19T06:29:45;7.20;;;3.00;;
78860;SDS011;68211;45.774;15.892;2023-09-19T06:32:11;4.82;;;2.60;;
78860;SDS011;68211;45.774;15.892;2023-09-19T06:34:38;8.95;;;2.92;;
78860;SDS011;68211;45.774;15.892;2023-09-19T06:37:04;5.07;;;2.05;;
78860;SDS011;68211;45.774;15.892;2023-09-19T06:39:32;7.38;;;2.40;;
78860;SDS011;68211;45.774;15.892;2023-09-19T06:41:59;5.47;;;2.40;;
78860;SDS011;68211;45.774;15.892;2023-09-19T06:44:25;9.07;;;2.92;;
78860;SDS011;68211;45.774;15.892;2023-09-19T06:46:51;3.70;;;2.40;;
78860;SDS011;68211;45.774;15.892;2023-09-19T06:49:18;7.43;;;2.72;;
78860;SDS011;68211;45.774;15.892;2023-09-19T06:51:44;8.15;;;2.88;;
78860;SDS011;68211;45.774;15.892;2023-09-19T06:54:11;7.05;;;2.85;;
78860;SDS011;68211;45.774;15.892;2023-09-19T06:56:39;5.40;;;2.60;;
78860;SDS011;68211;45.774;15.892;2023-09-19T06:59:05;7.00;;;3.25;;
78860;SDS011;68211;45.774;15.892;2023-09-19T07:01:32;10.73;;;3.53;;
78860;SDS011;68211;45.774;15.892;2023-09-19T07:03:58;11.30;;;3.65;;
78860;SDS011;68211;45.774;15.892;2023-09-19T07:06:25;11.73;;;4.05;;
78860;SDS011;68211;45.774;15.892;2023-09-19T07:08:51;7.15;;;3.47;;
78860;SDS011;68211;45.774;15.892;2023-09-19T07:11:18;6.57;;;3.30;;
78860;SDS011;68211;45.774;15.892;2023-09-19T07:13:46;8.13;;;3.55;;
78860;SDS011;68211;45.774;15.892;2023-09-19T07:16:12;7.03;;;3.55;;
78860;SDS011;68211;45.774;15.892;2023-09-19T07:18:39;7.57;;;3.35;;
78860;SDS011;68211;45.774;15.892;2023-09-19T07:21:05;4.97;;;3.33;;
78860;SDS011;68211;45.774;15.892;2023-09-19T07:23:32;8.10;;;3.38;;
78860;SDS011;68211;45.774;15.892;2023-09-19T07:25:58;11.52;;;3.33;;
78860;SDS011;68211;45.774;15.892;2023-09-19T07:28:25;13.77;;;3.67;;
78860;SDS011;68211;45.774;15.892;2023-09-19T07:30:53;9.88;;;3.38;;
78860;SDS011;68211;45.774;15.892;2023-09-19T07:33:19;8.88;;;3.88;;
78860;SDS011;68211;45.774;15.892;2023-09-19T07:35:46;12.35;;;3.58;;
78860;SDS011;68211;45.774;15.892;2023-09-19T07:38:12;6.22;;;3.47;;
78860;SDS011;68211;45.774;15.892;2023-09-19T07:40:39;10.38;;;3.50;;
78860;SDS011;68211;45.774;15.892;2023-09-19T07:43:06;10.40;;;4.07;;
78860;SDS011;68211;45.774;15.892;2023-09-19T07:45:32;8.95;;;3.80;;
78860;SDS011;68211;45.774;15.892;2023-09-19T07:48:01;8.40;;;3.13;;
78860;SDS011;68211;45.774;15.892;2023-09-19T07:50:27;8.00;;;3.42;;
78860;SDS011;68211;45.774;15.892;2023-09-19T07:52:54;9.85;;;3.13;;
78860;SDS011;68211;45.774;15.892;2023-09-19T07:55:20;8.65;;;3.00;;
78860;SDS011;68211;45.774;15.892;2023-09-19T07:57:47;9.63;;;3.42;;
78860;SDS011;68211;45.774;15.892;2023-09-19T08:00:14;6.88;;;2.88;;
78860;SDS011;68211;45.774;15.892;2023-09-19T08:02:42;6.05;;;2.88;;
78860;SDS011;68211;45.774;15.892;2023-09-19T08:05:10;18.98;;;3.03;;
78860;SDS011;68211;45.774;15.892;2023-09-19T08:07:37;7.97;;;3.47;;
78860;SDS011;68211;45.774;15.892;2023-09-19T08:10:05;19.95;;;3.97;;
78860;SDS011;68211;45.774;15.892;2023-09-19T08:12:31;6.75;;;2.90;;
78860;SDS011;68211;45.774;15.892;2023-09-19T08:14:58;12.68;;;3.30;;
78860;SDS011;68211;45.774;15.892;2023-09-19T08:17:24;10.18;;;3.15;;
78860;SDS011;68211;45.774;15.892;2023-09-19T08:19:51;11.23;;;3.45;;
78860;SDS011;68211;45.774;15.892;2023-09-19T08:22:19;10.30;;;2.78;;
78860;SDS011;68211;45.774;15.892;2023-09-19T08:24:45;8.07;;;3.10;;
78860;SDS011;68211;45.774;15.892;2023-09-19T08:27:12;10.50;;;3.35;;
78860;SDS011;68211;45.774;15.892;2023-09-19T08:29:38;7.78;;;2.65;;
78860;SDS011;68211;45.774;15.892;2023-09-19T08:32:05;8.90;;;3.50;;
78860;SDS011;68211;45.774;15.892;2023-09-19T08:34:31;6.43;;;3.40;;
78860;SDS011;68211;45.774;15.892;2023-09-19T08:36:58;10.40;;;3.13;;
78860;SDS011;68211;45.774;15.892;2023-09-19T08:39:26;6.70;;;2.95;;
78860;SDS011;68211;45.774;15.892;2023-09-19T08:41:56;6.57;;;2.88;;
78860;SDS011;68211;45.774;15.892;2023-09-19T08:44:23;8.57;;;3.65;;
78860;SDS011;68211;45.774;15.892;2023-09-19T08:46:49;8.77;;;3.17;;
78860;SDS011;68211;45.774;15.892;2023-09-19T08:49:23;4.80;;;3.15;;
78860;SDS011;68211;45.774;15.892;2023-09-19T08:51:51;7.65;;;3.00;;
78860;SDS011;68211;45.774;15.892;2023-09-19T08:54:21;8.50;;;3.42;;
78860;SDS011;68211;45.774;15.892;2023-09-19T08:56:49;5.22;;;3.22;;
78860;SDS011;68211;45.774;15.892;2023-09-19T08:59:16;8.32;;;3.00;;
78860;SDS011;68211;45.774;15.892;2023-09-19T09:01:48;12.25;;;3.60;;
78860;SDS011;68211;45.774;15.892;2023-09-19T09:04:14;10.73;;;4.20;;
78860;SDS011;68211;45.774;15.892;2023-09-19T09:06:41;13.50;;;4.60;;
78860;SDS011;68211;45.774;15.892;2023-09-19T09:09:08;9.82;;;4.00;;
78860;SDS011;68211;45.774;15.892;2023-09-19T09:11:34;9.07;;;4.10;;
78860;SDS011;68211;45.774;15.892;2023-09-19T09:14:03;10.43;;;4.05;;
78860;SDS011;68211;45.774;15.892;2023-09-19T09:16:30;13.15;;;4.50;;
78860;SDS011;68211;45.774;15.892;2023-09-19T09:18:59;11.02;;;4.00;;
78860;SDS011;68211;45.774;15.892;2023-09-19T09:21:29;6.40;;;3.72;;
78860;SDS011;68211;45.774;15.892;2023-09-19T09:23:57;4.63;;;3.30;;
78860;SDS011;68211;45.774;15.892;2023-09-19T09:26:42;20.27;;;4.25;;
78860;SDS011;68211;45.774;15.892;2023-09-19T09:29:13;11.68;;;4.10;;
78860;SDS011;68211;45.774;15.892;2023-09-19T09:31:46;9.65;;;3.35;;
78860;SDS011;68211;45.774;15.892;2023-09-19T09:34:13;10.82;;;4.00;;
78860;SDS011;68211;45.774;15.892;2023-09-19T09:36:40;9.15;;;4.30;;
78860;SDS011;68211;45.774;15.892;2023-09-19T09:39:07;8.10;;;3.15;;
78860;SDS011;68211;45.774;15.892;2023-09-19T09:41:35;6.57;;;2.85;;
78860;SDS011;68211;45.774;15.892;2023-09-19T09:44:10;4.55;;;2.63;;
78860;SDS011;68211;45.774;15.892;2023-09-19T09:46:39;3.90;;;2.33;;
78860;SDS011;68211;45.774;15.892;2023-09-19T09:49:10;4.07;;;2.30;;
78860;SDS011;68211;45.774;15.892;2023-09-19T09:51:36;6.28;;;2.42;;
78860;SDS011;68211;45.774;15.892;2023-09-19T09:54:09;4.82;;;2.30;;
78860;SDS011;68211;45.774;15.892;2023-09-19T09:56:36;6.60;;;2.60;;
78860;SDS011;68211;45.774;15.892;2023-09-19T09:59:17;7.72;;;2.70;;
78860;SDS011;68211;45.774;15.892;2023-09-19T10:01:48;4.32;;;2.40;;
78860;SDS011;68211;45.774;15.892;2023-09-19T10:04:15;2.80;;;2.50;;
78860;SDS011;68211;45.774;15.892;2023-09-19T10:06:53;4.68;;;2.58;;
78860;SDS011;68211;45.774;15.892;2023-09-19T10:09:19;4.78;;;2.70;;
78860;SDS011;68211;45.774;15.892;2023-09-19T10:11:46;3.95;;;2.67;;
78860;SDS011;68211;45.774;15.892;2023-09-19T10:14:14;5.30;;;2.58;;
78860;SDS011;68211;45.774;15.892;2023-09-19T10:16:45;3.70;;;2.60;;
78860;SDS011;68211;45.774;15.892;2023-09-19T10:19:14;6.07;;;2.85;;
78860;SDS011;68211;45.774;15.892;2023-09-19T10:21:41;4.28;;;2.53;;
78860;SDS011;68211;45.774;15.892;2023-09-19T10:24:10;7.13;;;2.50;;
78860;SDS011;68211;45.774;15.892;2023-09-19T10:26:37;6.35;;;2.90;;
78860;SDS011;68211;45.774;15.892;2023-09-19T10:29:05;6.53;;;3.10;;
78860;SDS011;68211;45.774;15.892;2023-09-19T10:31:32;7.38;;;2.90;;
78860;SDS011;68211;45.774;15.892;2023-09-19T10:34:02;5.95;;;3.33;;
78860;SDS011;68211;45.774;15.892;2023-09-19T10:36:31;6.60;;;3.35;;
78860;SDS011;68211;45.774;15.892;2023-09-19T10:38:58;4.70;;;3.15;;
78860;SDS011;68211;45.774;15.892;2023-09-19T10:41:26;5.65;;;3.00;;
78860;SDS011;68211;45.774;15.892;2023-09-19T10:43:53;5.00;;;3.00;;
78860;SDS011;68211;45.774;15.892;2023-09-19T10:46:21;4.47;;;3.28;;
78860;SDS011;68211;45.774;15.892;2023-09-19T10:48:47;6.85;;;3.20;;
78860;SDS011;68211;45.774;15.892;2023-09-19T10:51:18;6.82;;;3.58;;
78860;SDS011;68211;45.774;15.892;2023-09-19T10:53:48;11.02;;;3.80;;
78860;SDS011;68211;45.774;15.892;2023-09-19T10:56:18;6.25;;;3.22;;
78860;SDS011;68211;45.774;15.892;2023-09-19T10:58:45;6.53;;;3.37;;
78860;SDS011;68211;45.774;15.892;2023-09-19T11:01:12;6.38;;;2.90;;
78860;SDS011;68211;45.774;15.892;2023-09-19T11:03:39;6.10;;;2.83;;
78860;SDS011;68211;45.774;15.892;2023-09-19T11:06:06;7.43;;;3.13;;
78860;SDS011;68211;45.774;15.892;2023-09-19T11:22:14;7.18;;;3.05;;
78860;SDS011;68211;45.774;15.892;2023-09-19T11:24:41;3.92;;;2.35;;
78860;SDS011;68211;45.774;15.892;2023-09-19T11:27:11;6.43;;;3.10;;
78860;SDS011;68211;45.774;15.892;2023-09-19T11:29:38;6.90;;;3.30;;
78860;SDS011;68211;45.774;15.892;2023-09-19T11:32:04;5.90;;;2.90;;
78860;SDS011;68211;45.774;15.892;2023-09-19T11:34:41;5.25;;;3.53;;
78860;SDS011;68211;45.774;15.892;2023-09-19T11:40:06;8.40;;;3.40;;
78860;SDS011;68211;45.774;15.892;2023-09-19T11:42:42;5.05;;;3.22;;
78860;SDS011;68211;45.774;15.892;2023-09-19T11:47:50;6.35;;;3.22;;
78860;SDS011;68211;45.774;15.892;2023-09-19T11:50:17;6.88;;;3.38;;
78860;SDS011;68211;45.774;15.892;2023-09-19T11:52:45;5.85;;;3.00;;
78860;SDS011;68211;45.774;15.892;2023-09-19T11:55:13;9.45;;;3.08;;
78860;SDS011;68211;45.774;15.892;2023-09-19T11:57:39;9.70;;;3.25;;
78860;SDS011;68211;45.774;15.892;2023-09-19T12:00:07;5.57;;;2.85;;
78860;SDS011;68211;45.774;15.892;2023-09-19T12:02:35;7.53;;;3.25;;
78860;SDS011;68211;45.774;15.892;2023-09-19T12:05:05;7.18;;;4.10;;
78860;SDS011;68211;45.774;15.892;2023-09-19T12:07:32;9.82;;;3.60;;
78860;SDS011;68211;45.774;15.892;2023-09-19T12:10:08;5.80;;;3.60;;
78860;SDS011;68211;45.774;15.892;2023-09-19T12:12:36;7.82;;;3.80;;
78860;SDS011;68211;45.774;15.892;2023-09-19T12:15:03;6.32;;;3.50;;
78860;SDS011;68211;45.774;15.892;2023-09-19T12:17:35;10.80;;;3.13;;
78860;SDS011;68211;45.774;15.892;2023-09-19T12:20:01;6.60;;;3.00;;
78860;SDS011;68211;45.774;15.892;2023-09-19T12:22:38;4.70;;;2.70;;
78860;SDS011;68211;45.774;15.892;2023-09-19T12:25:05;5.75;;;3.10;;
78860;SDS011;68211;45.774;15.892;2023-09-19T12:27:42;4.00;;;2.80;;
78860;SDS011;68211;45.774;15.892;2023-09-19T12:30:08;5.45;;;2.90;;
78860;SDS011;68211;45.774;15.892;2023-09-19T12:32:52;9.13;;;2.85;;
78860;SDS011;68211;45.774;15.892;2023-09-19T12:35:26;5.22;;;2.40;;
78860;SDS011;68211;45.774;15.892;2023-09-19T12:37:53;4.57;;;2.67;;
78860;SDS011;68211;45.774;15.892;2023-09-19T12:40:20;6.70;;;2.90;;
78860;SDS011;68211;45.774;15.892;2023-09-19T12:42:48;7.00;;;2.30;;
78860;SDS011;68211;45.774;15.892;2023-09-19T12:45:15;4.85;;;2.35;;
78860;SDS011;68211;45.774;15.892;2023-09-19T12:50:23;6.68;;;2.15;;
78860;SDS011;68211;45.774;15.892;2023-09-19T12:52:50;6.25;;;1.90;;
78860;SDS011;68211;45.774;15.892;2023-09-19T12:55:21;6.13;;;2.42;;
78860;SDS011;68211;45.774;15.892;2023-09-19T12:58:01;3.58;;;2.60;;
78860;SDS011;68211;45.774;15.892;2023-09-19T13:00:35;6.40;;;2.38;;
78860;SDS011;68211;45.774;15.892;2023-09-19T13:03:15;7.55;;;2.47;;
78860;SDS011;68211;45.774;15.892;2023-09-19T13:05:51;5.80;;;2.30;;
78860;SDS011;68211;45.774;15.892;2023-09-19T13:08:17;5.05;;;2.70;;
78860;SDS011;68211;45.774;15.892;2023-09-19T13:10:59;7.18;;;2.70;;
78860;SDS011;68211;45.774;15.892;2023-09-19T13:13:27;6.28;;;2.40;;
78860;SDS011;68211;45.774;15.892;2023-09-19T13:15:54;3.30;;;2.28;;
78860;SDS011;68211;45.774;15.892;2023-09-19T13:18:21;3.78;;;2.40;;
78860;SDS011;68211;45.774;15.892;2023-09-19T13:23:29;13.30;;;2.88;;
78860;SDS011;68211;45.774;15.892;2023-09-19T13:25:56;5.28;;;2.28;;
78860;SDS011;68211;45.774;15.892;2023-09-19T13:28:22;3.35;;;2.35;;
78860;SDS011;68211;45.774;15.892;2023-09-19T13:30:50;5.03;;;2.35;;
78860;SDS011;68211;45.774;15.892;2023-09-19T13:33:16;5.05;;;2.80;;
78860;SDS011;68211;45.774;15.892;2023-09-19T13:35:43;4.25;;;2.13;;
78860;SDS011;68211;45.774;15.892;2023-09-19T13:38:09;6.45;;;2.45;;
78860;SDS011;68211;45.774;15.892;2023-09-19T13:40:36;4.88;;;2.17;;
78860;SDS011;68211;45.774;15.892;2023-09-19T13:43:03;4.68;;;2.30;;
78860;SDS011;68211;45.774;15.892;2023-09-19T13:45:29;3.72;;;2.60;;
78860;SDS011;68211;45.774;15.892;2023-09-19T13:47:57;5.15;;;2.40;;
78860;SDS011;68211;45.774;15.892;2023-09-19T13:50:24;4.68;;;2.28;;
78860;SDS011;68211;45.774;15.892;2023-09-19T13:52:50;2.70;;;2.13;;
78860;SDS011;68211;45.774;15.892;2023-09-19T13:55:17;11.10;;;2.83;;
78860;SDS011;68211;45.774;15.892;2023-09-19T13:57:44;5.68;;;2.33;;
78860;SDS011;68211;45.774;15.892;2023-09-19T14:00:11;2.85;;;2.40;;
78860;SDS011;68211;45.774;15.892;2023-09-19T14:02:37;4.25;;;2.38;;
78860;SDS011;68211;45.774;15.892;2023-09-19T14:05:06;7.47;;;2.95;;
78860;SDS011;68211;45.774;15.892;2023-09-19T14:07:32;4.43;;;2.70;;
78860;SDS011;68211;45.774;15.892;2023-09-19T14:09:59;5.15;;;2.45;;
78860;SDS011;68211;45.774;15.892;2023-09-19T14:12:25;5.47;;;2.25;;
78860;SDS011;68211;45.774;15.892;2023-09-19T14:14:52;10.10;;;2.05;;
78860;SDS011;68211;45.774;15.892;2023-09-19T14:17:18;2.72;;;1.92;;
78860;SDS011;68211;45.774;15.892;2023-09-19T14:19:45;5.15;;;2.35;;
78860;SDS011;68211;45.774;15.892;2023-09-19T14:22:13;4.10;;;2.47;;
78860;SDS011;68211;45.774;15.892;2023-09-19T14:24:43;3.80;;;2.10;;
78860;SDS011;68211;45.774;15.892;2023-09-19T14:27:09;4.93;;;2.22;;
78860;SDS011;68211;45.774;15.892;2023-09-19T14:29:36;2.63;;;2.10;;
78860;SDS011;68211;45.774;15.892;2023-09-19T14:32:02;4.32;;;2.22;;
78860;SDS011;68211;45.774;15.892;2023-09-19T14:34:29;3.75;;;1.90;;
78860;SDS011;68211;45.774;15.892;2023-09-19T14:36:56;3.58;;;2.22;;
78860;SDS011;68211;45.774;15.892;2023-09-19T14:39:23;2.35;;;1.90;;
78860;SDS011;68211;45.774;15.892;2023-09-19T14:41:50;6.57;;;2.00;;
78860;SDS011;68211;45.774;15.892;2023-09-19T14:44:16;5.22;;;2.38;;
78860;SDS011;68211;45.774;15.892;2023-09-19T14:46:43;4.07;;;1.92;;
78860;SDS011;68211;45.774;15.892;2023-09-19T14:49:10;5.50;;;2.00;;
78860;SDS011;68211;45.774;15.892;2023-09-19T14:51:37;5.05;;;1.90;;
78860;SDS011;68211;45.774;15.892;2023-09-19T14:54:04;5.32;;;2.30;;
78860;SDS011;68211;45.774;15.892;2023-09-19T14:56:32;4.85;;;2.10;;
78860;SDS011;68211;45.774;15.892;2023-09-19T14:58:58;5.43;;;2.25;;
78860;SDS011;68211;45.774;15.892;2023-09-19T15:01:25;5.65;;;2.60;;